createdAt,value
2019-01-23T00:00:44.700Z,17.43
2019-01-23T00:06:39.719Z,17.83
2019-01-23T00:12:34.692Z,16.77
2019-01-23T00:18:29.704Z,17.24
2019-01-23T00:24:24.692Z,18.44
2019-01-23T00:30:19.708Z,18.04
2019-01-23T00:36:14.714Z,18.73
2019-01-23T00:42:09.724Z,18.35
2019-01-23T00:48:04.702Z,18.94
2019-01-23T00:53:59.739Z,18.1
2019-01-23T00:59:54.730Z,18.31
2019-01-23T01:05:49.720Z,19.7
2019-01-23T01:11:44.725Z,18.71
2019-01-23T01:17:39.725Z,17.83
2019-01-23T01:23:34.740Z,43.63
2019-01-23T01:29:29.737Z,18.66
2019-01-23T01:35:24.734Z,19.46
2019-01-23T01:41:19.788Z,18.38
2019-01-23T01:47:14.765Z,18.74
2019-01-23T01:53:09.768Z,19.38
2019-01-23T01:59:04.780Z,18.52
2019-01-23T02:04:59.820Z,18.61
2019-01-23T02:10:54.773Z,17.69
2019-01-23T02:16:49.776Z,18.16
2019-01-23T02:22:44.754Z,18.48
2019-01-23T02:28:39.816Z,18.67
2019-01-23T02:34:34.782Z,17.63
2019-01-23T02:40:29.805Z,18.16
2019-01-23T02:46:24.761Z,17.23
2019-01-23T02:52:19.831Z,18.06
2019-01-23T02:58:14.792Z,19
2019-01-23T03:04:09.788Z,18.91
2019-01-23T03:10:04.793Z,19
2019-01-23T03:15:59.788Z,18.85
2019-01-23T03:21:54.763Z,18.89
2019-01-23T03:27:49.819Z,18.37
2019-01-23T03:33:44.803Z,17.91
2019-01-23T03:39:39.789Z,18.57
2019-01-23T03:45:34.782Z,19.12
2019-01-23T03:51:29.794Z,20.5
2019-01-23T03:57:24.789Z,20.62
2019-01-23T04:03:19.826Z,21.27
2019-01-23T04:09:14.805Z,18.8
2019-01-23T04:15:09.817Z,20.85
2019-01-23T04:21:04.813Z,21.64
2019-01-23T04:26:59.812Z,21
2019-01-23T04:32:54.833Z,21.51
2019-01-23T04:38:49.835Z,21.41
2019-01-23T04:44:44.842Z,21.37
2019-01-23T04:50:39.819Z,21.83
2019-01-23T04:56:34.844Z,21.88
2019-01-23T05:02:29.876Z,22.85
2019-01-23T05:08:24.815Z,21.52
2019-01-23T05:14:19.849Z,23.18
2019-01-23T05:20:14.836Z,21.65
2019-01-23T05:26:09.828Z,22.15
2019-01-23T05:32:04.829Z,21.8
2019-01-23T05:37:59.859Z,23.51
2019-01-23T05:43:54.849Z,21.46
2019-01-23T05:49:49.879Z,20.29
2019-01-23T05:55:44.849Z,19.9
2019-01-23T06:01:39.853Z,22.14
2019-01-23T06:07:34.869Z,20.03
2019-01-23T06:13:29.850Z,18.32
2019-01-23T06:19:24.860Z,19.11
2019-01-23T06:25:19.887Z,20.02
2019-01-23T06:31:14.878Z,19.61
2019-01-23T06:37:09.922Z,20.99
2019-01-23T06:43:04.904Z,20.86
2019-01-23T06:48:59.873Z,21.03
2019-01-23T06:54:54.893Z,20.91
2019-01-23T07:00:49.897Z,19.07
2019-01-23T07:06:44.953Z,20.41
2019-01-23T07:12:39.905Z,21.05
2019-01-23T07:18:34.899Z,21.16
2019-01-23T07:24:29.887Z,23.09
2019-01-23T07:30:24.937Z,22.62
2019-01-23T07:36:19.888Z,21.73
2019-01-23T07:42:14.918Z,23.55
2019-01-23T07:48:09.920Z,23.97
2019-01-23T07:54:04.922Z,24.22
2019-01-23T07:59:59.966Z,23.95
2019-01-23T08:05:54.905Z,24.05
2019-01-23T08:11:49.939Z,28.89
2019-01-23T08:17:45.002Z,26.72
2019-01-23T08:23:39.928Z,27.31
2019-01-23T08:29:34.911Z,26.7
2019-01-23T08:35:29.990Z,26.88
2019-01-23T08:41:24.929Z,24.29
2019-01-23T08:47:19.951Z,24.39
2019-01-23T08:53:14.932Z,23.71
2019-01-23T08:59:09.935Z,25.97
2019-01-23T09:05:04.959Z,25.33
2019-01-23T09:10:59.927Z,26.26
2019-01-23T09:16:54.929Z,27.1
2019-01-23T09:22:49.987Z,25.87
2019-01-23T09:28:44.941Z,24.51
2019-01-23T09:34:39.947Z,29.13
2019-01-23T09:40:34.961Z,24.88
2019-01-23T09:46:29.974Z,25.09
2019-01-23T09:52:24.953Z,25.59
2019-01-23T09:58:19.981Z,26.68
2019-01-23T10:04:14.971Z,25.44
2019-01-23T10:10:10.003Z,26.49
2019-01-23T10:16:04.965Z,27.82
2019-01-23T10:22:00.025Z,26.83
2019-01-23T10:27:54.957Z,27.06
2019-01-23T10:33:49.989Z,27.27
2019-01-23T10:39:44.994Z,26.25
2019-01-23T10:45:39.994Z,26.12
2019-01-23T10:51:34.987Z,28.72
2019-01-23T10:57:29.998Z,27.1
2019-01-23T11:03:24.992Z,27.69
2019-01-23T11:09:20.058Z,26.35
2019-01-23T11:15:15.005Z,27.63
2019-01-23T11:21:09.988Z,28.35
2019-01-23T11:27:04.984Z,26.4
2019-01-23T11:33:00.005Z,26.78
2019-01-23T11:38:55.016Z,25.92
2019-01-23T11:44:50.044Z,26.63
2019-01-23T11:50:45.016Z,28
2019-01-23T11:56:40.031Z,26.49
2019-01-23T12:02:35.035Z,26.45
2019-01-23T12:08:30.019Z,24.32
2019-01-23T12:14:25.033Z,25.9
2019-01-23T12:20:20.005Z,25.52
2019-01-23T12:26:15.078Z,24.39
2019-01-23T12:32:10.060Z,21.94
2019-01-23T12:38:05.055Z,22.05
2019-01-23T12:44:00.089Z,22.26
2019-01-23T12:49:55.046Z,21.52
2019-01-23T12:55:50.058Z,21.47
2019-01-23T13:01:45.033Z,21.1
2019-01-23T13:07:40.070Z,24.97
2019-01-23T13:13:35.055Z,19.39
2019-01-23T13:19:30.103Z,17.96
2019-01-23T13:25:25.067Z,27.77
2019-01-23T13:31:20.063Z,22.83
2019-01-23T13:37:15.055Z,21.03
2019-01-23T13:43:10.051Z,20.99
2019-01-23T13:49:05.080Z,18.37
2019-01-23T13:55:00.255Z,21.15
2019-01-23T14:00:55.069Z,23.63
2019-01-23T14:06:50.063Z,22.88
2019-01-23T14:12:45.106Z,26.29
2019-01-23T14:18:40.098Z,23.77
2019-01-23T14:24:35.118Z,21.54
2019-01-23T14:30:30.134Z,21.17
2019-01-23T14:36:25.092Z,20.91
2019-01-23T14:42:20.110Z,21.81
2019-01-23T14:48:15.113Z,19.93
2019-01-23T14:54:10.147Z,22.18
2019-01-23T15:00:05.128Z,21.57
2019-01-23T15:06:00.118Z,23.11
2019-01-23T15:11:55.121Z,23.1
2019-01-23T15:17:50.122Z,24.01
2019-01-23T15:23:45.125Z,23.12
2019-01-23T15:29:40.113Z,22.9
2019-01-23T15:35:35.132Z,18.7
2019-01-23T15:41:30.135Z,21.19
2019-01-23T15:47:25.123Z,26.46
2019-01-23T15:53:20.136Z,25.58
2019-01-23T15:59:15.136Z,24.11
2019-01-23T16:05:10.139Z,25.67
2019-01-23T16:11:05.143Z,23.62
2019-01-23T16:17:00.148Z,8.75
2019-01-23T16:22:55.145Z,7.05
2019-01-23T16:28:50.158Z,11.8
2019-01-23T16:34:45.159Z,4.47
2019-01-23T16:40:40.148Z,4.49
2019-01-23T16:46:35.175Z,9.61
2019-01-23T16:52:30.179Z,4.64
2019-01-23T16:58:25.163Z,4.21
2019-01-23T17:04:20.199Z,3.97
2019-01-23T17:10:15.215Z,4.94
2019-01-23T17:16:10.186Z,4.1
2019-01-23T17:22:05.209Z,3.48
2019-01-23T17:28:00.192Z,7.6
2019-01-23T17:33:55.187Z,7.24
2019-01-23T17:39:50.226Z,4.16
2019-01-23T17:45:45.226Z,3.28
2019-01-23T17:51:40.210Z,2.82
2019-01-23T17:57:35.247Z,3.27
2019-01-23T18:03:30.222Z,3.19
2019-01-23T18:09:25.246Z,2.4
2019-01-23T18:15:20.192Z,3.89
2019-01-23T18:21:15.218Z,2.81
2019-01-23T18:27:10.207Z,2.79
2019-01-23T18:33:05.205Z,5.93
2019-01-23T18:39:00.222Z,3.81
2019-01-23T18:44:55.219Z,1.71
2019-01-23T18:50:50.216Z,1.61
2019-01-23T18:56:45.239Z,1.13
2019-01-23T19:02:40.235Z,1.5
2019-01-23T19:08:35.233Z,1.71
2019-01-23T19:14:30.269Z,1.57
2019-01-23T19:20:25.228Z,1.76
2019-01-23T19:26:20.236Z,1.16
2019-01-23T19:38:10.266Z,1.54
2019-01-23T19:44:05.286Z,1.74
2019-01-23T19:50:00.310Z,1.5
2019-01-23T19:55:55.967Z,1.37
2019-01-23T20:01:50.256Z,1.75
2019-01-23T20:07:45.330Z,1.98
2019-01-23T20:13:40.291Z,1.25
2019-01-23T20:19:35.274Z,1.13
2019-01-23T20:25:30.443Z,1.17
2019-01-23T20:31:25.278Z,1.91
2019-01-23T20:37:23.409Z,1.32
2019-01-23T20:43:15.296Z,0.93
2019-01-23T20:49:10.276Z,1.1
2019-01-23T20:55:05.285Z,0.96
2019-01-23T21:01:00.251Z,1.16
2019-01-23T21:06:55.296Z,1.09
2019-01-23T21:12:50.287Z,1.33
2019-01-23T21:18:45.290Z,2.54
2019-01-23T21:24:42.837Z,1.66
2019-01-23T21:30:40.563Z,0.98
2019-01-23T21:36:30.414Z,2.05
2019-01-23T21:42:25.304Z,3.41
2019-01-23T21:48:21.057Z,5.24
2019-01-23T21:54:15.303Z,2.77
2019-01-23T22:00:10.398Z,2.46
2019-01-23T22:06:05.306Z,0.89
2019-01-23T22:12:00.370Z,0.82
2019-01-23T22:17:55.323Z,0.83
2019-01-23T22:23:50.338Z,0.58
2019-01-23T22:29:45.338Z,0.61
2019-01-23T22:35:40.334Z,0.5
2019-01-23T22:41:35.318Z,0.58
2019-01-23T22:47:30.317Z,0.67
2019-01-23T22:53:25.331Z,0.59
2019-01-23T22:59:20.353Z,0.56
2019-01-23T23:05:15.323Z,0.5
2019-01-23T23:11:10.371Z,0.54
2019-01-23T23:17:05.345Z,0.6
2019-01-23T23:23:00.399Z,0.68
2019-01-23T23:28:55.356Z,0.5
2019-01-23T23:34:50.338Z,0.53
2019-01-23T23:40:45.344Z,0.7
2019-01-23T23:46:40.361Z,0.56
2019-01-23T23:52:35.387Z,0.54
2019-01-23T23:58:30.359Z,0.63
